createdAt,value
2022-10-21T00:00:12.893Z,100570.66
2022-10-21T00:02:40.984Z,100564.75
2022-10-21T00:05:10.995Z,100560.84
2022-10-21T00:07:39.282Z,100549.47
2022-10-21T00:10:08.284Z,100545.59
2022-10-21T00:12:36.976Z,100544.44
2022-10-21T00:15:06.094Z,100544.84
2022-10-21T00:17:36.164Z,100542.91
2022-10-21T00:20:05.090Z,100549.19
2022-10-21T00:22:34.548Z,100542.13
2022-10-21T00:25:02.535Z,100536.66
2022-10-21T00:27:30.273Z,100544.44
2022-10-21T00:29:58.071Z,100543.63
2022-10-21T00:32:25.823Z,100553.81
2022-10-21T00:34:53.738Z,100560.06
2022-10-21T00:37:21.525Z,100557.34
2022-10-21T00:39:51.053Z,100560.84
2022-10-21T00:42:21.471Z,100564.38
2022-10-21T00:45:07.547Z,100570.22
2022-10-21T00:47:42.833Z,100563.34
2022-10-21T00:50:23.064Z,100568.00
2022-10-21T00:52:50.926Z,100564.19
2022-10-21T00:55:20.450Z,100563.50
2022-10-21T00:57:48.701Z,100560.75
2022-10-21T01:00:17.079Z,100567.44
2022-10-21T01:02:45.673Z,100563.56
2022-10-21T01:05:13.893Z,100559.66
2022-10-21T01:07:42.068Z,100559.31
2022-10-21T01:10:10.401Z,100561.69
2022-10-21T01:12:52.790Z,100569.50
2022-10-21T01:15:25.880Z,100562.06
2022-10-21T01:18:02.811Z,100562.84
2022-10-21T01:20:48.938Z,100553.75
2022-10-21T01:23:49.079Z,100551.59
2022-10-21T01:26:49.702Z,100543.78
2022-10-21T01:29:39.036Z,100541.41
2022-10-21T01:32:20.174Z,100537.53
2022-10-21T01:34:59.151Z,100536.66
2022-10-21T01:37:35.409Z,100537.44
2022-10-21T01:40:07.488Z,100532.75
2022-10-21T01:42:42.434Z,100525.25
2022-10-21T01:45:18.677Z,100518.56
2022-10-21T01:47:51.370Z,100519.63
2022-10-21T01:50:23.915Z,100516.84
2022-10-21T01:52:55.808Z,100509.69
2022-10-21T01:55:27.374Z,100510.38
2022-10-21T01:57:59.946Z,100507.22
2022-10-21T02:00:27.799Z,100506.34
2022-10-21T02:02:58.521Z,100506.25
2022-10-21T02:05:31.321Z,100499.09
2022-10-21T02:07:59.235Z,100492.78
2022-10-21T02:10:30.793Z,100493.03
2022-10-21T02:13:01.515Z,100500.38
2022-10-21T02:15:31.354Z,100480.34
2022-10-21T02:18:05.602Z,100487.22
2022-10-21T02:20:37.882Z,100477.28
2022-10-21T02:23:08.113Z,100473.22
2022-10-21T02:25:39.777Z,100476.66
2022-10-21T02:28:08.552Z,100472.66
2022-10-21T02:30:44.047Z,100479.63
2022-10-21T02:33:19.616Z,100485.38
2022-10-21T02:35:55.992Z,100463.41
2022-10-21T02:38:27.407Z,100478.59
2022-10-21T02:40:57.835Z,100465.97
2022-10-21T02:43:28.887Z,100468.19
2022-10-21T02:46:01.739Z,100453.63
2022-10-21T02:48:33.983Z,100458.66
2022-10-21T02:51:01.816Z,100457.78
2022-10-21T02:53:29.564Z,100453.47
2022-10-21T02:55:57.316Z,100454.16
2022-10-21T02:58:25.079Z,100459.53
2022-10-21T03:00:52.924Z,100459.44
2022-10-21T03:03:23.512Z,100462.53
2022-10-21T03:05:52.618Z,100467.19
2022-10-21T03:08:20.527Z,100466.28
2022-10-21T03:10:53.028Z,100465.44
2022-10-21T03:13:21.410Z,100468.41
2022-10-21T03:15:49.962Z,100464.44
2022-10-21T03:18:19.126Z,100458.06
2022-10-21T03:20:54.216Z,100443.19
2022-10-21T03:23:22.669Z,100448.66
2022-10-21T03:25:50.432Z,100445.94
2022-10-21T03:28:18.210Z,100451.38
2022-10-21T03:30:46.029Z,100454.13
2022-10-21T03:33:13.815Z,100455.25
2022-10-21T03:35:41.564Z,100460.25
2022-10-21T03:38:10.768Z,100464.94
2022-10-21T03:40:38.621Z,100460.97
2022-10-21T03:43:06.429Z,100461.78
2022-10-21T03:45:34.187Z,100457.53
2022-10-21T03:48:02.116Z,100452.06
2022-10-21T03:50:29.919Z,100450.91
2022-10-21T03:52:59.257Z,100452.53
2022-10-21T03:55:28.740Z,100448.66
2022-10-21T03:57:56.665Z,100444.78
2022-10-21T04:00:27.069Z,100446.34
2022-10-21T04:02:57.357Z,100439.41
2022-10-21T04:05:25.124Z,100444.53
2022-10-21T04:07:53.217Z,100441.78
2022-10-21T04:10:21.798Z,100442.59
2022-10-21T04:12:50.982Z,100447.69
2022-10-21T04:15:18.972Z,100441.53
2022-10-21T04:17:47.784Z,100445.16
2022-10-21T04:20:15.605Z,100449.03
2022-10-21T04:22:43.414Z,100440.38
2022-10-21T04:25:11.665Z,100444.25
2022-10-21T04:27:39.515Z,100444.97
2022-10-21T04:30:10.266Z,100439.50
2022-10-21T04:32:38.421Z,100439.06
2022-10-21T04:35:07.046Z,100437.44
2022-10-21T04:37:35.183Z,100441.78
2022-10-21T04:40:02.949Z,100431.66
2022-10-21T04:42:30.720Z,100431.31
2022-10-21T04:44:58.575Z,100436.78
2022-10-21T04:47:27.689Z,100426.19
2022-10-21T04:49:55.517Z,100419.22
2022-10-21T04:52:23.346Z,100420.56
2022-10-21T04:54:51.556Z,100428.03
2022-10-21T04:57:20.435Z,100428.84
2022-10-21T04:59:48.247Z,100432.81
2022-10-21T05:02:16.631Z,100434.03
2022-10-21T05:04:46.957Z,100432.09
2022-10-21T05:07:14.794Z,100432.09
2022-10-21T05:09:42.735Z,100423.91
2022-10-21T05:12:13.576Z,100426.63
2022-10-21T05:14:41.353Z,100433.69
2022-10-21T05:17:09.209Z,100440.06
2022-10-21T05:19:36.989Z,100431.50
2022-10-21T05:22:06.161Z,100427.97
2022-10-21T05:24:34.033Z,100431.50
2022-10-21T05:27:01.780Z,100424.09
2022-10-21T05:29:29.568Z,100407.69
2022-10-21T05:31:57.370Z,100415.88
2022-10-21T05:34:25.168Z,100412.00
2022-10-21T05:36:53.003Z,100403.81
2022-10-21T05:39:22.159Z,100401.78
2022-10-21T05:41:49.994Z,100403.72
2022-10-21T05:44:17.827Z,100407.25
2022-10-21T05:46:45.690Z,100396.69
2022-10-21T05:49:13.942Z,100395.53
2022-10-21T05:51:41.856Z,100399.06
2022-10-21T05:54:09.630Z,100394.75
2022-10-21T05:56:38.929Z,100390.44
2022-10-21T05:59:09.364Z,100388.81
2022-10-21T06:01:39.576Z,100384.84
2022-10-21T06:04:07.569Z,100386.78
2022-10-21T06:06:35.558Z,100382.47
2022-10-21T06:09:03.499Z,100389.09
2022-10-21T06:11:31.740Z,100385.91
2022-10-21T06:14:01.235Z,100385.91
2022-10-21T06:16:29.307Z,100383.53
2022-10-21T06:18:57.113Z,100392.09
2022-10-21T06:21:25.996Z,100380.25
2022-10-21T06:23:54.769Z,100385.72
2022-10-21T06:26:22.644Z,100380.25
2022-10-21T06:28:50.437Z,100378.69
2022-10-21T06:31:21.768Z,100380.19
2022-10-21T06:33:49.638Z,100384.06
2022-10-21T06:36:17.778Z,100387.59
2022-10-21T06:38:45.858Z,100396.16
2022-10-21T06:41:15.290Z,100389.06
2022-10-21T06:43:43.626Z,100391.00
2022-10-21T06:46:13.833Z,100389.44
2022-10-21T06:48:43.069Z,100384.69
2022-10-21T06:51:15.043Z,100390.50
2022-10-21T06:53:44.280Z,100395.16
2022-10-21T06:56:14.369Z,100404.16
2022-10-21T06:58:43.463Z,100406.88
2022-10-21T07:01:27.397Z,100412.00
2022-10-21T07:04:03.339Z,100413.56
2022-10-21T07:09:04.672Z,100412.06
2022-10-21T07:11:32.779Z,100405.81
2022-10-21T07:14:02.108Z,100402.72
2022-10-21T07:16:32.093Z,100409.00
2022-10-21T07:19:00.065Z,100421.53
2022-10-21T07:21:31.430Z,100417.66
2022-10-21T07:24:00.656Z,100425.47
2022-10-21T07:26:30.124Z,100432.16
2022-10-21T07:29:00.253Z,100439.69
2022-10-21T07:31:29.324Z,100442.84
2022-10-21T07:33:57.202Z,100446.03
2022-10-21T07:36:27.264Z,100444.53
2022-10-21T07:39:00.051Z,100463.31
2022-10-21T07:41:31.630Z,100477.41
2022-10-21T07:44:00.226Z,100490.41
2022-10-21T07:46:28.465Z,100478.06
2022-10-21T07:48:56.274Z,100481.66
2022-10-21T07:51:30.323Z,100488.47
2022-10-21T07:54:02.106Z,100475.22
2022-10-21T07:56:31.991Z,100471.00
2022-10-21T07:59:01.547Z,100477.72
2022-10-21T08:01:29.906Z,100468.78
2022-10-21T08:03:58.695Z,100467.38
2022-10-21T08:06:27.612Z,100470.28
2022-10-21T08:08:57.338Z,100476.28
2022-10-21T08:11:28.237Z,100465.53
2022-10-21T08:13:56.567Z,100458.22
2022-10-21T08:16:24.694Z,100449.03
2022-10-21T08:18:52.525Z,100451.84
2022-10-21T08:21:20.392Z,100451.56
2022-10-21T08:23:48.245Z,100455.16
2022-10-21T08:26:17.303Z,100455.69
2022-10-21T08:28:47.026Z,100457.78
2022-10-21T08:31:17.184Z,100455.47
2022-10-21T08:33:45.439Z,100461.84
2022-10-21T08:36:15.385Z,100461.94
2022-10-21T08:38:43.464Z,100462.78
2022-10-21T08:41:38.155Z,100467.88
2022-10-21T08:44:15.637Z,100462.16
2022-10-21T08:46:48.641Z,100471.25
2022-10-21T08:49:25.011Z,100463.88
2022-10-21T08:51:59.894Z,100465.47
2022-10-21T08:54:35.471Z,100452.66
2022-10-21T08:57:03.326Z,100451.91
2022-10-21T08:59:34.565Z,100453.16
2022-10-21T09:02:18.456Z,100446.53
2022-10-21T09:04:53.944Z,100453.16
2022-10-21T09:07:31.141Z,100451.22
2022-10-21T09:10:02.658Z,100463.31
2022-10-21T09:12:37.925Z,100464.91
2022-10-21T09:15:23.834Z,100474.28
2022-10-21T09:18:22.897Z,100470.38
2022-10-21T09:21:04.631Z,100479.09
2022-10-21T09:23:49.344Z,100489.25
2022-10-21T09:26:30.341Z,100492.44
2022-10-21T09:28:58.621Z,100480.75
2022-10-21T09:31:30.446Z,100476.84
2022-10-21T09:34:03.752Z,100479.31
2022-10-21T09:36:36.035Z,100491.56
2022-10-21T09:39:08.433Z,100490.53
2022-10-21T09:41:42.315Z,100500.38
2022-10-21T09:44:17.546Z,100504.00
2022-10-21T09:46:48.415Z,100498.88
2022-10-21T09:49:47.885Z,100501.16
2022-10-21T09:52:12.712Z,100500.88
2022-10-21T09:54:42.905Z,100499.34
2022-10-21T09:57:16.025Z,100514.31
2022-10-21T09:59:55.096Z,100517.38
2022-10-21T10:02:30.157Z,100524.47
2022-10-21T10:04:58.480Z,100537.03
2022-10-21T10:07:34.601Z,100535.44
2022-10-21T10:10:03.102Z,100547.97
2022-10-21T10:12:31.430Z,100535.44
2022-10-21T10:15:26.940Z,100543.66
2022-10-21T10:17:59.641Z,100535.56
2022-10-21T10:20:27.729Z,100545.06
2022-10-21T10:23:10.795Z,100538.88
2022-10-21T10:25:40.569Z,100536.97
2022-10-21T10:28:19.785Z,100542.91
2022-10-21T10:30:51.127Z,100539.84
2022-10-21T10:33:24.238Z,100545.00
2022-10-21T10:35:54.857Z,100534.47
2022-10-21T10:38:35.649Z,100558.75
2022-10-21T10:41:09.186Z,100555.31
2022-10-21T10:43:43.583Z,100533.81
2022-10-21T10:46:24.343Z,100543.97
2022-10-21T10:48:57.116Z,100545.19
2022-10-21T10:51:27.748Z,100558.19
2022-10-21T10:54:04.618Z,100549.59
2022-10-21T10:56:37.142Z,100550.38
2022-10-21T10:59:15.614Z,100538.66
2022-10-21T11:01:52.304Z,100542.66
2022-10-21T11:04:28.563Z,100535.63
2022-10-21T11:07:04.133Z,100544.28
2022-10-21T11:09:34.503Z,100545.16
2022-10-21T11:12:08.990Z,100541.66
2022-10-21T11:14:36.908Z,100531.06
2022-10-21T11:17:10.764Z,100549.09
2022-10-21T11:19:52.462Z,100541.19
2022-10-21T11:22:33.893Z,100550.56
2022-10-21T11:25:12.611Z,100551.00
2022-10-21T11:28:08.629Z,100544.28
2022-10-21T11:30:51.949Z,100547.59
2022-10-21T11:33:32.009Z,100543.75
2022-10-21T11:36:08.502Z,100539.63
2022-10-21T11:39:22.964Z,100540.09
2022-10-21T11:41:57.834Z,100551.28
2022-10-21T11:44:32.100Z,100535.63
2022-10-21T11:47:09.076Z,100533.75
2022-10-21T11:49:52.445Z,100545.16
2022-10-21T11:52:35.982Z,100539.78
2022-10-21T11:55:30.504Z,100539.88
2022-10-21T11:58:08.156Z,100535.25
2022-10-21T12:00:44.561Z,100533.78
2022-10-21T12:03:37.543Z,100533.03
2022-10-21T12:06:14.047Z,100524.16
2022-10-21T12:08:51.862Z,100521.50
2022-10-21T12:11:25.660Z,100523.19
2022-10-21T12:13:58.914Z,100515.38
2022-10-21T12:16:29.411Z,100517.91
2022-10-21T12:19:01.214Z,100512.53
2022-10-21T12:21:31.851Z,100511.00
2022-10-21T12:24:21.619Z,100512.59
2022-10-21T12:26:54.576Z,100507.97
2022-10-21T12:29:29.968Z,100503.00
2022-10-21T12:32:04.168Z,100505.81
2022-10-21T12:34:32.369Z,100503.50
2022-10-21T12:37:02.072Z,100497.66
2022-10-21T12:39:51.547Z,100483.91
2022-10-21T12:42:21.723Z,100481.22
2022-10-21T12:44:51.345Z,100494.22
2022-10-21T12:47:31.027Z,100484.03
2022-10-21T12:50:08.205Z,100484.06
2022-10-21T12:52:38.907Z,100481.00
2022-10-21T12:55:20.353Z,100484.97
2022-10-21T12:57:57.395Z,100473.69
2022-10-21T13:00:57.296Z,100474.09
2022-10-21T13:03:51.306Z,100481.69
2022-10-21T13:06:54.567Z,100484.91
2022-10-21T13:09:41.512Z,100480.56
2022-10-21T13:12:29.013Z,100485.63
2022-10-21T13:14:58.452Z,100489.22
2022-10-21T13:17:49.085Z,100484.13
2022-10-21T13:20:45.356Z,100491.19
2022-10-21T13:23:38.113Z,100491.63
2022-10-21T13:26:24.153Z,100497.16
2022-10-21T13:29:01.866Z,100499.50
2022-10-21T13:31:30.758Z,100501.13
2022-10-21T13:33:58.970Z,100501.06
2022-10-21T13:39:20.382Z,100518.66
2022-10-21T13:41:55.808Z,100529.34
2022-10-21T13:44:30.002Z,100529.34
2022-10-21T13:46:58.512Z,100523.84
2022-10-21T13:49:29.263Z,100525.03
2022-10-21T13:51:58.305Z,100512.09
2022-10-21T13:54:35.860Z,100514.84
2022-10-21T13:57:07.629Z,100518.38
2022-10-21T13:59:35.485Z,100512.13
2022-10-21T14:02:05.140Z,100512.19
2022-10-21T14:04:35.167Z,100513.03
2022-10-21T14:07:06.296Z,100513.06
2022-10-21T14:09:41.041Z,100510.66
2022-10-21T14:12:18.745Z,100508.31
2022-10-21T14:14:48.036Z,100498.06
2022-10-21T14:17:19.212Z,100505.16
2022-10-21T14:19:51.574Z,100498.06
2022-10-21T14:22:21.887Z,100500.03
2022-10-21T14:24:56.760Z,100491.34
2022-10-21T14:27:28.420Z,100493.31
2022-10-21T14:29:57.413Z,100488.97
2022-10-21T14:32:27.944Z,100487.00
2022-10-21T14:35:07.020Z,100497.63
2022-10-21T14:37:37.212Z,100487.41
2022-10-21T14:40:21.025Z,100487.44
2022-10-21T14:42:53.274Z,100483.59
2022-10-21T14:45:26.556Z,100490.72
2022-10-21T14:48:02.907Z,100485.63
2022-10-21T14:50:30.775Z,100489.59
2022-10-21T14:52:58.613Z,100494.34
2022-10-21T14:55:30.073Z,100489.59
2022-10-21T14:58:04.774Z,100487.25
2022-10-21T15:00:36.949Z,100485.72
2022-10-21T15:03:05.148Z,100476.28
2022-10-21T15:05:39.210Z,100488.09
2022-10-21T15:08:29.305Z,100483.38
2022-10-21T15:11:23.384Z,100480.22
2022-10-21T15:13:59.446Z,100488.09
2022-10-21T15:16:30.504Z,100491.25
2022-10-21T15:19:00.042Z,100490.84
2022-10-21T15:21:35.960Z,100492.38
2022-10-21T15:24:05.439Z,100490.78
2022-10-21T15:26:37.759Z,100490.78
2022-10-21T15:29:14.917Z,100483.31
2022-10-21T15:31:42.745Z,100485.28
2022-10-21T15:34:15.890Z,100490.41
2022-10-21T15:36:44.398Z,100491.53
2022-10-21T15:39:12.899Z,100492.69
2022-10-21T15:41:42.444Z,100486.38
2022-10-21T15:44:19.075Z,100485.91
2022-10-21T15:46:47.899Z,100472.94
2022-10-21T15:49:19.062Z,100484.34
2022-10-21T15:51:47.642Z,100489.84
2022-10-21T15:54:17.874Z,100489.47
2022-10-21T15:56:49.005Z,100491.38
2022-10-21T15:59:19.539Z,100497.28
2022-10-21T16:01:48.467Z,100501.97
2022-10-21T16:04:16.860Z,100494.06
2022-10-21T16:06:49.492Z,100496.00
2022-10-21T16:09:20.884Z,100498.72
2022-10-21T16:12:00.319Z,100498.31
2022-10-21T16:14:30.502Z,100497.47
2022-10-21T16:16:59.625Z,100499.03
2022-10-21T16:19:27.652Z,100494.69
2022-10-21T16:21:55.505Z,100509.22
2022-10-21T16:24:23.362Z,100516.25
2022-10-21T16:26:52.602Z,100520.56
2022-10-21T16:29:22.012Z,100523.63
2022-10-21T16:31:50.139Z,100514.13
2022-10-21T16:34:17.945Z,100521.16
2022-10-21T16:36:46.043Z,100520.34
2022-10-21T16:39:15.949Z,100520.28
2022-10-21T16:41:43.841Z,100522.63
2022-10-21T16:44:13.048Z,100526.50
2022-10-21T16:46:43.336Z,100515.44
2022-10-21T16:49:14.134Z,100519.38
2022-10-21T16:51:45.899Z,100523.28
2022-10-21T16:54:14.554Z,100532.72
2022-10-21T16:56:42.434Z,100534.63
2022-10-21T16:59:10.273Z,100528.72
2022-10-21T17:01:40.149Z,100533.81
2022-10-21T17:04:08.225Z,100542.78
2022-10-21T17:06:35.997Z,100547.88
2022-10-21T17:09:03.965Z,100543.16
2022-10-21T17:11:34.744Z,100545.91
2022-10-21T17:14:03.181Z,100548.22
2022-10-21T17:16:31.230Z,100549.38
2022-10-21T17:19:00.416Z,100550.16
2022-10-21T17:21:29.923Z,100554.41
2022-10-21T17:23:59.208Z,100559.88
2022-10-21T17:26:27.936Z,100559.03
2022-10-21T17:28:56.944Z,100568.44
2022-10-21T17:31:26.443Z,100569.53
2022-10-21T17:33:56.176Z,100575.34
2022-10-21T17:36:25.548Z,100582.78
2022-10-21T17:38:53.396Z,100572.81
2022-10-21T17:41:21.522Z,100579.81
2022-10-21T17:43:49.664Z,100577.38
2022-10-21T17:46:19.188Z,100580.44
2022-10-21T17:48:49.808Z,100583.53
2022-10-21T17:51:17.908Z,100587.75
2022-10-21T17:53:49.752Z,100588.81
2022-10-21T17:56:18.384Z,100585.56
2022-10-21T17:58:46.652Z,100591.75
2022-10-21T18:01:15.949Z,100594.78
2022-10-21T18:03:44.309Z,100593.88
2022-10-21T18:06:13.646Z,100591.47
2022-10-21T18:08:41.687Z,100595.31
2022-10-21T18:11:13.817Z,100594.44
2022-10-21T18:13:42.189Z,100592.03
2022-10-21T18:16:12.164Z,100600.19
2022-10-21T18:21:15.109Z,100601.97
2022-10-21T18:23:44.818Z,100599.53
2022-10-21T18:26:16.688Z,100598.69
2022-10-21T18:28:44.546Z,100600.56
2022-10-21T18:31:13.683Z,100602.47
2022-10-21T18:33:41.397Z,100602.38
2022-10-21T18:36:10.494Z,100606.22
2022-10-21T18:38:38.748Z,100603.78
2022-10-21T18:41:21.479Z,100596.63
2022-10-21T18:43:52.093Z,100598.06
2022-10-21T18:46:20.885Z,100606.25
2022-10-21T18:48:48.887Z,100599.47
2022-10-21T18:51:18.894Z,100605.59
2022-10-21T18:53:50.190Z,100606.25
2022-10-21T18:56:21.247Z,100606.53
2022-10-21T18:58:51.202Z,100607.53
2022-10-21T19:01:21.361Z,100619.94
2022-10-21T19:03:50.871Z,100614.38
2022-10-21T19:06:29.523Z,100609.28
2022-10-21T19:08:57.628Z,100611.13
2022-10-21T19:11:25.749Z,100614.28
2022-10-21T19:13:54.781Z,100615.59
2022-10-21T19:16:23.028Z,100612.16
2022-10-21T19:18:50.756Z,100615.75
2022-10-21T19:21:19.503Z,100611.53
2022-10-21T19:23:47.875Z,100612.38
2022-10-21T19:26:18.845Z,100606.19
2022-10-21T19:28:49.141Z,100617.22
2022-10-21T19:31:21.031Z,100603.94
2022-10-21T19:33:48.790Z,100614.91
2022-10-21T19:36:16.529Z,100607.13
2022-10-21T19:38:44.876Z,100611.44
2022-10-21T19:41:15.926Z,100612.25
2022-10-21T19:43:44.184Z,100610.28
2022-10-21T19:46:17.453Z,100608.25
2022-10-21T19:48:49.443Z,100609.41
2022-10-21T19:51:19.678Z,100610.66
2022-10-21T19:53:48.423Z,100604.81
2022-10-21T19:56:18.067Z,100611.44
2022-10-21T19:58:47.908Z,100610.28
2022-10-21T20:01:17.937Z,100614.97
2022-10-21T20:03:51.479Z,100622.84
2022-10-21T20:06:21.799Z,100622.41
2022-10-21T20:08:49.652Z,100611.00
2022-10-21T20:11:20.353Z,100605.47
2022-10-21T20:13:48.934Z,100621.81
2022-10-21T20:16:18.028Z,100630.41
2022-10-21T20:18:46.456Z,100631.50
2022-10-21T20:21:15.748Z,100646.69
2022-10-21T20:23:43.818Z,100645.06
2022-10-21T20:26:11.703Z,100649.66
2022-10-21T20:28:40.050Z,100658.13
2022-10-21T20:31:10.429Z,100661.25
2022-10-21T20:33:41.048Z,100657.19
2022-10-21T20:36:12.148Z,100664.06
2022-10-21T20:38:41.435Z,100661.94
2022-10-21T20:41:11.720Z,100665.41
2022-10-21T20:43:41.625Z,100660.66
2022-10-21T20:46:12.106Z,100664.53
2022-10-21T20:48:42.603Z,100662.94
2022-10-21T20:51:12.646Z,100664.88
2022-10-21T20:53:45.708Z,100669.56
2022-10-21T20:56:13.769Z,100670.72
2022-10-21T20:58:42.653Z,100673.03
2022-10-21T21:01:12.015Z,100677.34
2022-10-21T21:03:42.867Z,100671.44
2022-10-21T21:06:11.436Z,100665.19
2022-10-21T21:08:48.821Z,100675.31
2022-10-21T21:11:22.293Z,100672.13
2022-10-21T21:13:50.086Z,100683.88
2022-10-21T21:16:19.782Z,100692.47
2022-10-21T21:18:52.479Z,100684.97
2022-10-21T21:21:21.830Z,100695.47
2022-10-21T21:23:51.452Z,100693.88
2022-10-21T21:26:21.020Z,100693.00
2022-10-21T21:28:50.774Z,100685.13
2022-10-21T21:31:19.751Z,100685.13
2022-10-21T21:33:47.682Z,100677.28
2022-10-21T21:36:17.048Z,100664.72
2022-10-21T21:38:45.288Z,100662.34
2022-10-21T21:41:16.638Z,100659.25
2022-10-21T21:43:46.327Z,100658.81
2022-10-21T21:46:22.499Z,100660.41
2022-10-21T21:48:54.867Z,100667.09
2022-10-21T21:51:25.484Z,100667.91
2022-10-21T21:53:53.393Z,100671.00
2022-10-21T21:56:23.341Z,100660.84
2022-10-21T21:58:52.313Z,100666.31
2022-10-21T22:01:22.027Z,100674.53
2022-10-21T22:03:51.853Z,100675.31
2022-10-21T22:06:20.290Z,100671.00
2022-10-21T22:08:49.127Z,100663.16
2022-10-21T22:11:18.942Z,100664.72
2022-10-21T22:13:48.520Z,100662.34
2022-10-21T22:16:17.034Z,100655.28
2022-10-21T22:18:45.440Z,100662.72
2022-10-21T22:21:16.281Z,100656.78
2022-10-21T22:23:44.754Z,100656.78
2022-10-21T22:26:13.635Z,100657.94
2022-10-21T22:28:41.940Z,100648.13
2022-10-21T22:31:13.739Z,100653.59
2022-10-21T22:36:11.764Z,100652.03
2022-10-21T22:38:39.656Z,100665.28
2022-10-21T22:41:12.220Z,100654.22
2022-10-21T22:43:40.661Z,100659.25
2022-10-21T22:46:22.038Z,100661.91
2022-10-21T22:48:57.979Z,100656.25
2022-10-21T22:51:25.833Z,100659.25
2022-10-21T22:53:56.551Z,100666.22
2022-10-21T22:56:25.231Z,100667.28
2022-10-21T22:58:53.451Z,100662.94
2022-10-21T23:01:21.390Z,100670.16
2022-10-21T23:03:49.237Z,100665.75
2022-10-21T23:06:18.590Z,100670.44
2022-10-21T23:08:46.503Z,100663.28
2022-10-21T23:11:14.395Z,100665.56
2022-10-21T23:13:56.088Z,100662.41
2022-10-21T23:16:30.095Z,100657.63
2022-10-21T23:18:58.018Z,100662.19
2022-10-21T23:21:27.322Z,100670.38
2022-10-21T23:23:55.200Z,100669.91
2022-10-21T23:26:23.034Z,100672.91
2022-10-21T23:28:50.885Z,100689.13
2022-10-21T23:31:20.871Z,100688.22
2022-10-21T23:33:48.910Z,100684.13
2022-10-21T23:36:16.775Z,100686.44
2022-10-21T23:38:45.913Z,100681.31
2022-10-21T23:41:13.792Z,100677.31
2022-10-21T23:43:41.589Z,100674.16
2022-10-21T23:46:09.416Z,100681.56
2022-10-21T23:48:38.815Z,100684.28
2022-10-21T23:51:07.063Z,100695.56
2022-10-21T23:53:35.107Z,100699.44
2022-10-21T23:56:04.643Z,100697.03
2022-10-21T23:58:32.607Z,100700.91
